sensor_id;sensor_type;location;lat;lon;timestamp;temperature;humidity
40556;DHT22;26250;45.422;11.100;2023-04-25T00:00:15;15.90;85.50
40556;DHT22;26250;45.422;11.100;2023-04-25T00:02:42;15.80;85.90
40556;DHT22;26250;45.422;11.100;2023-04-25T00:05:09;15.80;86.70
40556;DHT22;26250;45.422;11.100;2023-04-25T00:07:37;15.80;86.00
40556;DHT22;26250;45.422;11.100;2023-04-25T00:10:05;15.90;86.10
40556;DHT22;26250;45.422;11.100;2023-04-25T00:12:33;15.80;86.00
40556;DHT22;26250;45.422;11.100;2023-04-25T00:15:02;15.80;85.90
40556;DHT22;26250;45.422;11.100;2023-04-25T00:17:29;15.80;85.80
40556;DHT22;26250;45.422;11.100;2023-04-25T00:20:01;15.70;85.40
40556;DHT22;26250;45.422;11.100;2023-04-25T00:22:31;15.80;85.70
40556;DHT22;26250;45.422;11.100;2023-04-25T00:24:58;15.80;85.50
40556;DHT22;26250;45.422;11.100;2023-04-25T00:27:27;15.80;85.40
40556;DHT22;26250;45.422;11.100;2023-04-25T00:29:53;15.80;84.60
40556;DHT22;26250;45.422;11.100;2023-04-25T00:32:20;15.80;85.10
40556;DHT22;26250;45.422;11.100;2023-04-25T00:34:47;15.90;84.50
40556;DHT22;26250;45.422;11.100;2023-04-25T00:37:14;15.90;83.70
40556;DHT22;26250;45.422;11.100;2023-04-25T00:39:41;15.90;83.70
40556;DHT22;26250;45.422;11.100;2023-04-25T00:42:08;15.90;83.40
40556;DHT22;26250;45.422;11.100;2023-04-25T00:44:37;15.90;83.20
40556;DHT22;26250;45.422;11.100;2023-04-25T00:47:04;16.00;83.20
40556;DHT22;26250;45.422;11.100;2023-04-25T00:49:31;16.00;83.20
40556;DHT22;26250;45.422;11.100;2023-04-25T00:51:58;16.00;83.10
40556;DHT22;26250;45.422;11.100;2023-04-25T00:54:25;16.00;83.20
40556;DHT22;26250;45.422;11.100;2023-04-25T00:56:52;15.90;83.80
40556;DHT22;26250;45.422;11.100;2023-04-25T00:59:19;15.90;84.00
40556;DHT22;26250;45.422;11.100;2023-04-25T01:01:47;15.90;85.50
40556;DHT22;26250;45.422;11.100;2023-04-25T01:04:14;15.90;85.90
40556;DHT22;26250;45.422;11.100;2023-04-25T01:06:41;15.90;85.70
40556;DHT22;26250;45.422;11.100;2023-04-25T01:09:09;15.80;85.80
40556;DHT22;26250;45.422;11.100;2023-04-25T01:11:36;15.90;87.00
40556;DHT22;26250;45.422;11.100;2023-04-25T01:14:03;16.00;86.70
40556;DHT22;26250;45.422;11.100;2023-04-25T01:16:32;16.00;86.90
40556;DHT22;26250;45.422;11.100;2023-04-25T01:19:00;15.90;86.90
40556;DHT22;26250;45.422;11.100;2023-04-25T01:21:27;15.80;86.50
40556;DHT22;26250;45.422;11.100;2023-04-25T01:23:56;15.70;86.50
40556;DHT22;26250;45.422;11.100;2023-04-25T01:26:23;15.60;86.20
40556;DHT22;26250;45.422;11.100;2023-04-25T01:28:51;15.70;87.60
40556;DHT22;26250;45.422;11.100;2023-04-25T01:31:18;15.70;86.70
40556;DHT22;26250;45.422;11.100;2023-04-25T01:33:47;15.70;87.00
40556;DHT22;26250;45.422;11.100;2023-04-25T01:36:14;15.70;87.70
40556;DHT22;26250;45.422;11.100;2023-04-25T01:38:42;15.80;88.30
40556;DHT22;26250;45.422;11.100;2023-04-25T01:41:10;15.80;86.90
40556;DHT22;26250;45.422;11.100;2023-04-25T01:43:38;15.70;83.70
40556;DHT22;26250;45.422;11.100;2023-04-25T01:46:05;15.70;84.60
40556;DHT22;26250;45.422;11.100;2023-04-25T01:48:32;15.60;84.20
40556;DHT22;26250;45.422;11.100;2023-04-25T01:50:59;15.60;84.30
40556;DHT22;26250;45.422;11.100;2023-04-25T01:53:27;15.60;83.60
40556;DHT22;26250;45.422;11.100;2023-04-25T01:55:56;15.50;84.00
40556;DHT22;26250;45.422;11.100;2023-04-25T01:58:25;15.60;84.50
40556;DHT22;26250;45.422;11.100;2023-04-25T02:01:13;15.70;84.50
40556;DHT22;26250;45.422;11.100;2023-04-25T02:03:46;15.80;83.60
40556;DHT22;26250;45.422;11.100;2023-04-25T02:06:28;15.70;82.70
40556;DHT22;26250;45.422;11.100;2023-04-25T02:08:56;15.70;83.40
40556;DHT22;26250;45.422;11.100;2023-04-25T02:11:23;15.70;83.00
40556;DHT22;26250;45.422;11.100;2023-04-25T02:14:13;15.70;83.00
40556;DHT22;26250;45.422;11.100;2023-04-25T02:16:47;15.60;84.10
40556;DHT22;26250;45.422;11.100;2023-04-25T02:19:15;15.60;83.70
40556;DHT22;26250;45.422;11.100;2023-04-25T02:21:42;15.60;83.50
40556;DHT22;26250;45.422;11.100;2023-04-25T02:24:10;15.60;83.80
40556;DHT22;26250;45.422;11.100;2023-04-25T02:26:37;15.50;83.60
40556;DHT22;26250;45.422;11.100;2023-04-25T02:29:09;15.60;84.30
40556;DHT22;26250;45.422;11.100;2023-04-25T02:31:36;15.60;83.70
40556;DHT22;26250;45.422;11.100;2023-04-25T02:34:03;15.60;83.40
40556;DHT22;26250;45.422;11.100;2023-04-25T02:36:34;15.60;82.60
40556;DHT22;26250;45.422;11.100;2023-04-25T02:39:02;15.50;83.30
40556;DHT22;26250;45.422;11.100;2023-04-25T02:41:29;15.60;82.60
40556;DHT22;26250;45.422;11.100;2023-04-25T02:43:56;15.60;82.80
40556;DHT22;26250;45.422;11.100;2023-04-25T02:46:23;15.60;81.80
40556;DHT22;26250;45.422;11.100;2023-04-25T02:49:05;15.70;82.10
40556;DHT22;26250;45.422;11.100;2023-04-25T02:51:33;15.60;82.20
40556;DHT22;26250;45.422;11.100;2023-04-25T02:54:00;15.60;81.00
40556;DHT22;26250;45.422;11.100;2023-04-25T02:56:31;15.60;82.00
40556;DHT22;26250;45.422;11.100;2023-04-25T02:58:58;15.70;81.90
40556;DHT22;26250;45.422;11.100;2023-04-25T03:01:25;15.80;82.60
40556;DHT22;26250;45.422;11.100;2023-04-25T03:03:52;15.90;82.10
40556;DHT22;26250;45.422;11.100;2023-04-25T03:06:20;15.90;80.70
40556;DHT22;26250;45.422;11.100;2023-04-25T03:08:47;16.00;81.10
40556;DHT22;26250;45.422;11.100;2023-04-25T03:11:14;15.90;81.20
40556;DHT22;26250;45.422;11.100;2023-04-25T03:13:42;15.80;80.50
40556;DHT22;26250;45.422;11.100;2023-04-25T03:16:10;15.80;79.60
40556;DHT22;26250;45.422;11.100;2023-04-25T03:18:37;15.70;79.30
40556;DHT22;26250;45.422;11.100;2023-04-25T03:21:04;15.70;79.10
40556;DHT22;26250;45.422;11.100;2023-04-25T03:23:31;15.70;80.00
40556;DHT22;26250;45.422;11.100;2023-04-25T03:25:58;15.70;79.50
40556;DHT22;26250;45.422;11.100;2023-04-25T03:28:25;15.80;78.70
40556;DHT22;26250;45.422;11.100;2023-04-25T03:30:54;15.80;79.60
40556;DHT22;26250;45.422;11.100;2023-04-25T03:33:21;15.80;79.00
40556;DHT22;26250;45.422;11.100;2023-04-25T03:35:49;15.70;79.20
40556;DHT22;26250;45.422;11.100;2023-04-25T03:38:17;15.80;79.20
40556;DHT22;26250;45.422;11.100;2023-04-25T03:40:45;15.80;79.50
40556;DHT22;26250;45.422;11.100;2023-04-25T03:43:33;15.80;80.30
40556;DHT22;26250;45.422;11.100;2023-04-25T03:46:04;15.90;81.00
40556;DHT22;26250;45.422;11.100;2023-04-25T03:48:31;15.90;81.10
40556;DHT22;26250;45.422;11.100;2023-04-25T03:50:58;15.90;81.10
40556;DHT22;26250;45.422;11.100;2023-04-25T03:53:25;15.90;81.10
40556;DHT22;26250;45.422;11.100;2023-04-25T03:56:13;15.80;80.50
40556;DHT22;26250;45.422;11.100;2023-04-25T03:58:41;15.80;80.30
40556;DHT22;26250;45.422;11.100;2023-04-25T04:01:07;15.70;80.10
40556;DHT22;26250;45.422;11.100;2023-04-25T04:03:37;15.60;81.70
40556;DHT22;26250;45.422;11.100;2023-04-25T04:06:05;15.50;82.00
40556;DHT22;26250;45.422;11.100;2023-04-25T04:08:36;15.50;81.60
40556;DHT22;26250;45.422;11.100;2023-04-25T04:11:03;15.50;80.90
40556;DHT22;26250;45.422;11.100;2023-04-25T04:13:31;15.50;81.20
40556;DHT22;26250;45.422;11.100;2023-04-25T04:15:59;15.50;81.60
40556;DHT22;26250;45.422;11.100;2023-04-25T04:18:26;15.50;81.70
40556;DHT22;26250;45.422;11.100;2023-04-25T04:20:55;15.50;81.50
40556;DHT22;26250;45.422;11.100;2023-04-25T04:23:26;15.50;81.60
40556;DHT22;26250;45.422;11.100;2023-04-25T04:25:55;15.50;81.30
40556;DHT22;26250;45.422;11.100;2023-04-25T04:28:55;15.50;81.50
40556;DHT22;26250;45.422;11.100;2023-04-25T04:31:35;15.50;82.50
40556;DHT22;26250;45.422;11.100;2023-04-25T04:34:03;15.50;82.70
40556;DHT22;26250;45.422;11.100;2023-04-25T04:36:30;15.40;82.70
40556;DHT22;26250;45.422;11.100;2023-04-25T04:38:57;15.50;82.90
40556;DHT22;26250;45.422;11.100;2023-04-25T04:41:35;15.40;82.90
40556;DHT22;26250;45.422;11.100;2023-04-25T04:44:28;15.40;82.60
40556;DHT22;26250;45.422;11.100;2023-04-25T04:47:24;15.30;82.60
40556;DHT22;26250;45.422;11.100;2023-04-25T04:50:16;15.30;83.10
40556;DHT22;26250;45.422;11.100;2023-04-25T04:53:02;15.20;83.10
40556;DHT22;26250;45.422;11.100;2023-04-25T04:55:41;15.10;83.50
40556;DHT22;26250;45.422;11.100;2023-04-25T04:58:28;15.10;83.60
40556;DHT22;26250;45.422;11.100;2023-04-25T05:01:10;15.00;83.80
40556;DHT22;26250;45.422;11.100;2023-04-25T05:03:55;15.00;84.10
40556;DHT22;26250;45.422;11.100;2023-04-25T05:06:59;15.00;84.90
40556;DHT22;26250;45.422;11.100;2023-04-25T05:09:41;15.00;85.20
40556;DHT22;26250;45.422;11.100;2023-04-25T05:12:37;15.10;85.70
40556;DHT22;26250;45.422;11.100;2023-04-25T05:15:09;15.10;85.30
40556;DHT22;26250;45.422;11.100;2023-04-25T05:17:59;15.30;88.00
40556;DHT22;26250;45.422;11.100;2023-04-25T05:20:34;15.50;86.80
40556;DHT22;26250;45.422;11.100;2023-04-25T05:23:01;15.50;86.30
40556;DHT22;26250;45.422;11.100;2023-04-25T05:25:54;15.50;86.30
40556;DHT22;26250;45.422;11.100;2023-04-25T05:28:31;15.60;84.50
40556;DHT22;26250;45.422;11.100;2023-04-25T05:31:10;15.50;84.80
40556;DHT22;26250;45.422;11.100;2023-04-25T05:33:57;14.70;82.90
40556;DHT22;26250;45.422;11.100;2023-04-25T05:36:34;14.00;85.20
40556;DHT22;26250;45.422;11.100;2023-04-25T05:39:04;13.70;89.00
40556;DHT22;26250;45.422;11.100;2023-04-25T05:41:52;13.30;90.90
40556;DHT22;26250;45.422;11.100;2023-04-25T05:44:45;13.30;92.00
40556;DHT22;26250;45.422;11.100;2023-04-25T05:47:28;13.40;91.70
40556;DHT22;26250;45.422;11.100;2023-04-25T05:50:05;13.20;91.30
40556;DHT22;26250;45.422;11.100;2023-04-25T05:52:53;13.20;92.20
40556;DHT22;26250;45.422;11.100;2023-04-25T05:55:24;13.30;92.30
40556;DHT22;26250;45.422;11.100;2023-04-25T05:57:51;13.50;91.50
40556;DHT22;26250;45.422;11.100;2023-04-25T06:00:19;13.40;91.90
40556;DHT22;26250;45.422;11.100;2023-04-25T06:02:48;13.40;91.60
40556;DHT22;26250;45.422;11.100;2023-04-25T06:05:16;13.30;92.20
40556;DHT22;26250;45.422;11.100;2023-04-25T06:07:45;13.30;92.30
40556;DHT22;26250;45.422;11.100;2023-04-25T06:10:13;13.20;92.50
40556;DHT22;26250;45.422;11.100;2023-04-25T06:12:41;13.20;92.50
40556;DHT22;26250;45.422;11.100;2023-04-25T06:15:09;13.20;93.20
40556;DHT22;26250;45.422;11.100;2023-04-25T06:17:52;13.20;93.40
40556;DHT22;26250;45.422;11.100;2023-04-25T06:20:19;13.20;94.30
40556;DHT22;26250;45.422;11.100;2023-04-25T06:22:51;13.20;94.50
40556;DHT22;26250;45.422;11.100;2023-04-25T06:25:20;13.20;94.30
40556;DHT22;26250;45.422;11.100;2023-04-25T06:27:47;13.30;94.00
40556;DHT22;26250;45.422;11.100;2023-04-25T06:30:15;13.20;93.60
40556;DHT22;26250;45.422;11.100;2023-04-25T06:32:45;13.30;93.40
40556;DHT22;26250;45.422;11.100;2023-04-25T06:35:12;13.30;93.30
40556;DHT22;26250;45.422;11.100;2023-04-25T06:37:39;13.30;93.10
40556;DHT22;26250;45.422;11.100;2023-04-25T06:40:07;13.20;92.80
40556;DHT22;26250;45.422;11.100;2023-04-25T06:42:35;13.20;92.80
40556;DHT22;26250;45.422;11.100;2023-04-25T06:45:21;13.10;93.60
40556;DHT22;26250;45.422;11.100;2023-04-25T06:47:49;13.20;93.70
40556;DHT22;26250;45.422;11.100;2023-04-25T06:50:16;13.20;93.80
40556;DHT22;26250;45.422;11.100;2023-04-25T06:52:43;13.20;93.60
40556;DHT22;26250;45.422;11.100;2023-04-25T06:55:10;13.20;93.50
40556;DHT22;26250;45.422;11.100;2023-04-25T06:58:05;13.30;93.30
40556;DHT22;26250;45.422;11.100;2023-04-25T07:00:50;13.30;92.90
40556;DHT22;26250;45.422;11.100;2023-04-25T07:03:20;13.40;92.50
40556;DHT22;26250;45.422;11.100;2023-04-25T07:05:48;13.50;92.80
40556;DHT22;26250;45.422;11.100;2023-04-25T07:08:15;13.50;92.80
40556;DHT22;26250;45.422;11.100;2023-04-25T07:10:42;13.50;92.90
40556;DHT22;26250;45.422;11.100;2023-04-25T07:13:09;13.50;93.40
40556;DHT22;26250;45.422;11.100;2023-04-25T07:15:36;13.60;92.80
40556;DHT22;26250;45.422;11.100;2023-04-25T07:18:03;13.70;92.30
40556;DHT22;26250;45.422;11.100;2023-04-25T07:20:30;13.90;93.10
40556;DHT22;26250;45.422;11.100;2023-04-25T07:22:58;13.90;92.10
40556;DHT22;26250;45.422;11.100;2023-04-25T07:25:25;14.00;91.40
40556;DHT22;26250;45.422;11.100;2023-04-25T07:27:53;13.90;90.20
40556;DHT22;26250;45.422;11.100;2023-04-25T07:30:21;13.90;93.10
40556;DHT22;26250;45.422;11.100;2023-04-25T07:32:48;13.70;95.60
40556;DHT22;26250;45.422;11.100;2023-04-25T07:35:16;13.60;94.20
40556;DHT22;26250;45.422;11.100;2023-04-25T07:37:43;13.60;94.80
40556;DHT22;26250;45.422;11.100;2023-04-25T07:40:14;13.50;92.50
40556;DHT22;26250;45.422;11.100;2023-04-25T07:42:48;13.50;92.50
40556;DHT22;26250;45.422;11.100;2023-04-25T07:45:19;13.40;90.90
40556;DHT22;26250;45.422;11.100;2023-04-25T07:47:46;13.50;91.40
40556;DHT22;26250;45.422;11.100;2023-04-25T07:50:13;13.60;91.30
40556;DHT22;26250;45.422;11.100;2023-04-25T07:52:40;13.60;90.80
40556;DHT22;26250;45.422;11.100;2023-04-25T07:55:23;13.70;90.80
40556;DHT22;26250;45.422;11.100;2023-04-25T07:57:59;13.70;90.10
40556;DHT22;26250;45.422;11.100;2023-04-25T08:00:28;13.70;90.40
40556;DHT22;26250;45.422;11.100;2023-04-25T08:03:15;13.70;90.50
40556;DHT22;26250;45.422;11.100;2023-04-25T08:05:43;13.80;89.60
40556;DHT22;26250;45.422;11.100;2023-04-25T08:08:11;13.80;90.60
40556;DHT22;26250;45.422;11.100;2023-04-25T08:10:40;13.90;90.60
40556;DHT22;26250;45.422;11.100;2023-04-25T08:13:08;13.90;90.70
40556;DHT22;26250;45.422;11.100;2023-04-25T08:15:36;13.80;90.40
40556;DHT22;26250;45.422;11.100;2023-04-25T08:18:03;13.80;89.90
40556;DHT22;26250;45.422;11.100;2023-04-25T08:20:31;13.80;90.00
40556;DHT22;26250;45.422;11.100;2023-04-25T08:23:03;13.90;90.40
40556;DHT22;26250;45.422;11.100;2023-04-25T08:25:51;13.90;90.20
40556;DHT22;26250;45.422;11.100;2023-04-25T08:28:21;13.90;90.20
40556;DHT22;26250;45.422;11.100;2023-04-25T08:30:48;14.00;89.70
40556;DHT22;26250;45.422;11.100;2023-04-25T08:33:17;14.00;88.00
40556;DHT22;26250;45.422;11.100;2023-04-25T08:35:44;14.10;89.80
40556;DHT22;26250;45.422;11.100;2023-04-25T08:38:13;14.20;87.90
40556;DHT22;26250;45.422;11.100;2023-04-25T08:40:40;14.30;87.90
40556;DHT22;26250;45.422;11.100;2023-04-25T08:43:13;14.50;88.30
40556;DHT22;26250;45.422;11.100;2023-04-25T08:45:42;14.60;87.60
40556;DHT22;26250;45.422;11.100;2023-04-25T08:48:16;14.70;85.90
40556;DHT22;26250;45.422;11.100;2023-04-25T08:53:12;14.70;86.40
40556;DHT22;26250;45.422;11.100;2023-04-25T08:55:46;14.80;84.70
40556;DHT22;26250;45.422;11.100;2023-04-25T08:58:13;14.80;83.90
40556;DHT22;26250;45.422;11.100;2023-04-25T09:00:41;14.80;84.90
40556;DHT22;26250;45.422;11.100;2023-04-25T09:03:09;14.80;84.00
40556;DHT22;26250;45.422;11.100;2023-04-25T09:05:37;14.80;85.10
40556;DHT22;26250;45.422;11.100;2023-04-25T09:08:07;14.90;82.80
40556;DHT22;26250;45.422;11.100;2023-04-25T09:10:35;15.10;85.90
40556;DHT22;26250;45.422;11.100;2023-04-25T09:13:06;15.20;84.60
40556;DHT22;26250;45.422;11.100;2023-04-25T09:15:57;15.20;84.60
40556;DHT22;26250;45.422;11.100;2023-04-25T09:18:41;15.30;83.20
40556;DHT22;26250;45.422;11.100;2023-04-25T09:21:15;15.30;84.30
40556;DHT22;26250;45.422;11.100;2023-04-25T09:23:47;15.40;85.10
40556;DHT22;26250;45.422;11.100;2023-04-25T09:26:18;15.50;83.10
40556;DHT22;26250;45.422;11.100;2023-04-25T09:28:46;15.60;83.60
40556;DHT22;26250;45.422;11.100;2023-04-25T09:31:23;15.60;84.50
40556;DHT22;26250;45.422;11.100;2023-04-25T09:33:59;15.60;83.40
40556;DHT22;26250;45.422;11.100;2023-04-25T09:36:34;15.70;82.60
40556;DHT22;26250;45.422;11.100;2023-04-25T09:39:16;15.80;82.40
40556;DHT22;26250;45.422;11.100;2023-04-25T09:41:54;15.90;81.70
40556;DHT22;26250;45.422;11.100;2023-04-25T09:44:24;16.00;81.20
40556;DHT22;26250;45.422;11.100;2023-04-25T09:46:54;16.00;80.90
40556;DHT22;26250;45.422;11.100;2023-04-25T09:49:25;16.10;82.00
40556;DHT22;26250;45.422;11.100;2023-04-25T09:52:03;16.20;79.90
40556;DHT22;26250;45.422;11.100;2023-04-25T09:54:39;16.20;80.30
40556;DHT22;26250;45.422;11.100;2023-04-25T09:57:18;16.30;79.70
40556;DHT22;26250;45.422;11.100;2023-04-25T09:59:50;16.30;79.40
40556;DHT22;26250;45.422;11.100;2023-04-25T10:02:21;16.30;78.70
40556;DHT22;26250;45.422;11.100;2023-04-25T10:04:53;16.40;81.30
40556;DHT22;26250;45.422;11.100;2023-04-25T10:07:30;16.50;81.10
40556;DHT22;26250;45.422;11.100;2023-04-25T10:10:00;16.60;80.30
40556;DHT22;26250;45.422;11.100;2023-04-25T10:12:30;16.60;79.60
40556;DHT22;26250;45.422;11.100;2023-04-25T10:15:01;16.50;80.10
40556;DHT22;26250;45.422;11.100;2023-04-25T10:17:29;16.50;79.80
40556;DHT22;26250;45.422;11.100;2023-04-25T10:19:58;16.50;80.10
40556;DHT22;26250;45.422;11.100;2023-04-25T10:22:31;16.50;79.50
40556;DHT22;26250;45.422;11.100;2023-04-25T10:25:00;16.50;78.70
40556;DHT22;26250;45.422;11.100;2023-04-25T10:27:31;16.50;79.20
40556;DHT22;26250;45.422;11.100;2023-04-25T10:30:07;16.60;79.70
40556;DHT22;26250;45.422;11.100;2023-04-25T10:32:36;16.60;78.60
40556;DHT22;26250;45.422;11.100;2023-04-25T10:37:38;16.90;79.60
40556;DHT22;26250;45.422;11.100;2023-04-25T10:40:10;16.90;80.00
40556;DHT22;26250;45.422;11.100;2023-04-25T10:42:37;17.00;78.40
40556;DHT22;26250;45.422;11.100;2023-04-25T10:45:07;17.00;76.70
40556;DHT22;26250;45.422;11.100;2023-04-25T10:47:35;17.00;77.60
40556;DHT22;26250;45.422;11.100;2023-04-25T10:50:08;17.00;77.00
40556;DHT22;26250;45.422;11.100;2023-04-25T10:52:35;17.10;78.30
40556;DHT22;26250;45.422;11.100;2023-04-25T10:55:05;17.00;79.20
40556;DHT22;26250;45.422;11.100;2023-04-25T10:57:40;17.10;80.00
40556;DHT22;26250;45.422;11.100;2023-04-25T11:00:18;17.10;78.80
40556;DHT22;26250;45.422;11.100;2023-04-25T11:02:55;17.20;79.90
40556;DHT22;26250;45.422;11.100;2023-04-25T11:05:33;17.10;80.40
40556;DHT22;26250;45.422;11.100;2023-04-25T11:08:26;17.20;80.50
40556;DHT22;26250;45.422;11.100;2023-04-25T11:11:00;17.30;81.30
40556;DHT22;26250;45.422;11.100;2023-04-25T11:13:30;17.40;79.40
40556;DHT22;26250;45.422;11.100;2023-04-25T11:15:57;17.40;79.80
40556;DHT22;26250;45.422;11.100;2023-04-25T11:18:41;17.40;79.60
40556;DHT22;26250;45.422;11.100;2023-04-25T11:21:08;17.30;79.40
40556;DHT22;26250;45.422;11.100;2023-04-25T11:23:36;17.30;80.70
40556;DHT22;26250;45.422;11.100;2023-04-25T11:26:03;17.40;79.20
40556;DHT22;26250;45.422;11.100;2023-04-25T11:28:32;17.40;79.30
40556;DHT22;26250;45.422;11.100;2023-04-25T11:30:58;17.40;79.10
40556;DHT22;26250;45.422;11.100;2023-04-25T11:33:26;17.40;79.00
40556;DHT22;26250;45.422;11.100;2023-04-25T11:35:54;17.40;79.10
40556;DHT22;26250;45.422;11.100;2023-04-25T11:38:25;17.50;79.60
40556;DHT22;26250;45.422;11.100;2023-04-25T11:40:55;17.60;78.40
40556;DHT22;26250;45.422;11.100;2023-04-25T11:43:22;17.70;79.40
40556;DHT22;26250;45.422;11.100;2023-04-25T11:45:50;17.80;79.00
40556;DHT22;26250;45.422;11.100;2023-04-25T11:48:20;17.90;76.20
40556;DHT22;26250;45.422;11.100;2023-04-25T11:51:07;17.80;76.10
40556;DHT22;26250;45.422;11.100;2023-04-25T11:53:34;17.90;76.20
40556;DHT22;26250;45.422;11.100;2023-04-25T11:56:01;18.00;77.10
40556;DHT22;26250;45.422;11.100;2023-04-25T11:58:57;18.00;77.10
40556;DHT22;26250;45.422;11.100;2023-04-25T12:01:40;17.90;77.60
40556;DHT22;26250;45.422;11.100;2023-04-25T12:04:18;17.80;78.00
40556;DHT22;26250;45.422;11.100;2023-04-25T12:06:47;17.80;77.70
40556;DHT22;26250;45.422;11.100;2023-04-25T12:09:19;18.00;76.10
40556;DHT22;26250;45.422;11.100;2023-04-25T12:11:52;17.90;76.60
40556;DHT22;26250;45.422;11.100;2023-04-25T12:14:27;17.90;76.40
40556;DHT22;26250;45.422;11.100;2023-04-25T12:16:56;17.80;75.30
40556;DHT22;26250;45.422;11.100;2023-04-25T12:19:25;17.70;76.00
40556;DHT22;26250;45.422;11.100;2023-04-25T12:21:52;17.60;75.10
40556;DHT22;26250;45.422;11.100;2023-04-25T12:24:26;17.50;76.60
40556;DHT22;26250;45.422;11.100;2023-04-25T12:27:05;17.50;77.30
40556;DHT22;26250;45.422;11.100;2023-04-25T12:29:33;17.50;78.20
40556;DHT22;26250;45.422;11.100;2023-04-25T12:32:14;17.60;78.20
40556;DHT22;26250;45.422;11.100;2023-04-25T12:34:42;17.40;79.80
40556;DHT22;26250;45.422;11.100;2023-04-25T12:37:09;17.40;80.20
40556;DHT22;26250;45.422;11.100;2023-04-25T12:39:37;17.30;78.90
40556;DHT22;26250;45.422;11.100;2023-04-25T12:42:04;17.10;78.20
40556;DHT22;26250;45.422;11.100;2023-04-25T12:44:35;17.10;80.60
40556;DHT22;26250;45.422;11.100;2023-04-25T12:47:02;16.90;82.50
40556;DHT22;26250;45.422;11.100;2023-04-25T12:49:30;16.90;82.80
40556;DHT22;26250;45.422;11.100;2023-04-25T12:51:57;16.80;84.60
40556;DHT22;26250;45.422;11.100;2023-04-25T12:54:24;16.70;82.10
40556;DHT22;26250;45.422;11.100;2023-04-25T12:56:52;16.60;83.30
40556;DHT22;26250;45.422;11.100;2023-04-25T12:59:19;16.40;83.80
40556;DHT22;26250;45.422;11.100;2023-04-25T13:01:47;16.30;85.20
40556;DHT22;26250;45.422;11.100;2023-04-25T13:04:14;16.20;85.60
40556;DHT22;26250;45.422;11.100;2023-04-25T13:06:43;16.20;87.30
40556;DHT22;26250;45.422;11.100;2023-04-25T13:09:10;16.10;89.40
40556;DHT22;26250;45.422;11.100;2023-04-25T13:11:39;16.00;90.40
40556;DHT22;26250;45.422;11.100;2023-04-25T13:14:07;15.90;91.60
40556;DHT22;26250;45.422;11.100;2023-04-25T13:16:34;15.80;91.70
40556;DHT22;26250;45.422;11.100;2023-04-25T13:19:01;15.70;92.00
40556;DHT22;26250;45.422;11.100;2023-04-25T13:21:30;15.70;91.70
40556;DHT22;26250;45.422;11.100;2023-04-25T13:23:59;15.70;92.50
40556;DHT22;26250;45.422;11.100;2023-04-25T13:26:26;15.80;93.60
40556;DHT22;26250;45.422;11.100;2023-04-25T13:28:53;15.80;93.00
40556;DHT22;26250;45.422;11.100;2023-04-25T13:31:19;16.00;92.80
40556;DHT22;26250;45.422;11.100;2023-04-25T13:33:47;16.10;91.70
40556;DHT22;26250;45.422;11.100;2023-04-25T13:36:15;16.00;91.30
40556;DHT22;26250;45.422;11.100;2023-04-25T13:38:42;15.90;92.10
40556;DHT22;26250;45.422;11.100;2023-04-25T13:41:10;16.00;92.40
40556;DHT22;26250;45.422;11.100;2023-04-25T13:43:42;16.10;91.90
40556;DHT22;26250;45.422;11.100;2023-04-25T13:46:09;16.00;92.40
40556;DHT22;26250;45.422;11.100;2023-04-25T13:48:56;16.00;91.20
40556;DHT22;26250;45.422;11.100;2023-04-25T13:51:35;16.10;91.20
40556;DHT22;26250;45.422;11.100;2023-04-25T13:54:02;16.00;91.30
40556;DHT22;26250;45.422;11.100;2023-04-25T13:56:29;16.00;92.00
40556;DHT22;26250;45.422;11.100;2023-04-25T13:58:56;16.10;92.40
40556;DHT22;26250;45.422;11.100;2023-04-25T14:01:23;16.10;92.30
40556;DHT22;26250;45.422;11.100;2023-04-25T14:03:50;16.20;92.00
40556;DHT22;26250;45.422;11.100;2023-04-25T14:06:17;16.20;92.20
40556;DHT22;26250;45.422;11.100;2023-04-25T14:08:53;16.20;92.10
40556;DHT22;26250;45.422;11.100;2023-04-25T14:11:20;16.10;92.20
40556;DHT22;26250;45.422;11.100;2023-04-25T14:13:47;16.00;92.20
40556;DHT22;26250;45.422;11.100;2023-04-25T14:16:16;16.00;93.00
40556;DHT22;26250;45.422;11.100;2023-04-25T14:18:43;15.90;93.90
40556;DHT22;26250;45.422;11.100;2023-04-25T14:21:10;15.80;93.90
40556;DHT22;26250;45.422;11.100;2023-04-25T14:23:37;15.90;93.20
40556;DHT22;26250;45.422;11.100;2023-04-25T14:26:04;15.80;93.00
40556;DHT22;26250;45.422;11.100;2023-04-25T14:28:31;15.80;93.40
40556;DHT22;26250;45.422;11.100;2023-04-25T14:30:58;15.90;93.10
40556;DHT22;26250;45.422;11.100;2023-04-25T14:33:25;16.00;93.20
40556;DHT22;26250;45.422;11.100;2023-04-25T14:35:52;16.00;92.40
40556;DHT22;26250;45.422;11.100;2023-04-25T14:38:19;16.00;92.40
40556;DHT22;26250;45.422;11.100;2023-04-25T14:40:49;16.00;93.00
40556;DHT22;26250;45.422;11.100;2023-04-25T14:43:17;16.00;93.80
40556;DHT22;26250;45.422;11.100;2023-04-25T14:45:44;16.00;93.20
40556;DHT22;26250;45.422;11.100;2023-04-25T14:48:11;16.20;93.10
40556;DHT22;26250;45.422;11.100;2023-04-25T14:50:38;16.30;93.10
40556;DHT22;26250;45.422;11.100;2023-04-25T14:53:05;16.30;93.30
40556;DHT22;26250;45.422;11.100;2023-04-25T14:55:32;16.30;93.30
40556;DHT22;26250;45.422;11.100;2023-04-25T14:57:59;16.30;93.20
40556;DHT22;26250;45.422;11.100;2023-04-25T15:00:26;16.30;93.50
40556;DHT22;26250;45.422;11.100;2023-04-25T15:02:53;16.30;93.60
40556;DHT22;26250;45.422;11.100;2023-04-25T15:05:20;16.40;92.90
40556;DHT22;26250;45.422;11.100;2023-04-25T15:07:47;16.30;92.00
40556;DHT22;26250;45.422;11.100;2023-04-25T15:10:16;16.40;92.40
40556;DHT22;26250;45.422;11.100;2023-04-25T15:12:43;16.40;92.10
40556;DHT22;26250;45.422;11.100;2023-04-25T15:15:14;16.50;91.90
40556;DHT22;26250;45.422;11.100;2023-04-25T15:17:51;16.50;91.80
40556;DHT22;26250;45.422;11.100;2023-04-25T15:20:19;16.60;91.20
40556;DHT22;26250;45.422;11.100;2023-04-25T15:22:46;16.70;91.00
40556;DHT22;26250;45.422;11.100;2023-04-25T15:25:16;16.70;90.90
40556;DHT22;26250;45.422;11.100;2023-04-25T15:27:44;16.70;90.60
40556;DHT22;26250;45.422;11.100;2023-04-25T15:30:14;16.70;89.80
40556;DHT22;26250;45.422;11.100;2023-04-25T15:32:45;16.70;89.50
40556;DHT22;26250;45.422;11.100;2023-04-25T15:35:14;16.80;89.10
40556;DHT22;26250;45.422;11.100;2023-04-25T15:37:41;16.80;87.60
40556;DHT22;26250;45.422;11.100;2023-04-25T15:40:14;16.80;88.90
40556;DHT22;26250;45.422;11.100;2023-04-25T15:42:44;16.80;90.50